sensor_id;sensor_type;location;lat;lon;timestamp;pressure;altitude;pressure_sealevel;temperature;humidity
41624;BME280;27319;50.306;18.926;2023-04-29T00:01:58;97931.03;;;11.32;61.10
41624;BME280;27319;50.306;18.926;2023-04-29T00:05:34;97934.06;;;11.29;60.36
41624;BME280;27319;50.306;18.926;2023-04-29T00:09:35;97927.56;;;11.23;60.91
41624;BME280;27319;50.306;18.926;2023-04-29T00:13:36;97929.25;;;11.24;60.70
41624;BME280;27319;50.306;18.926;2023-04-29T00:17:36;97923.22;;;11.22;59.70
41624;BME280;27319;50.306;18.926;2023-04-29T00:21:37;97918.03;;;11.21;60.85
41624;BME280;27319;50.306;18.926;2023-04-29T00:25:38;97924.88;;;11.23;60.82
41624;BME280;27319;50.306;18.926;2023-04-29T00:29:39;97916.19;;;11.21;61.05
41624;BME280;27319;50.306;18.926;2023-04-29T00:33:39;97917.84;;;11.22;61.12
41624;BME280;27319;50.306;18.926;2023-04-29T00:37:40;97906.44;;;11.20;61.59
41624;BME280;27319;50.306;18.926;2023-04-29T00:41:29;97908.13;;;11.21;60.85
41624;BME280;27319;50.306;18.926;2023-04-29T00:44:51;97908.47;;;11.18;60.58
41624;BME280;27319;50.306;18.926;2023-04-29T00:48:52;97905.78;;;11.18;61.86
41624;BME280;27319;50.306;18.926;2023-04-29T00:52:52;97913.19;;;11.16;61.28
41624;BME280;27319;50.306;18.926;2023-04-29T00:56:53;97905.66;;;11.12;60.97
41624;BME280;27319;50.306;18.926;2023-04-29T01:00:54;97904.06;;;11.03;60.63
41624;BME280;27319;50.306;18.926;2023-04-29T01:04:55;97913.53;;;11.13;62.01
41624;BME280;27319;50.306;18.926;2023-04-29T01:20:11;97915.41;;;11.13;62.25
41624;BME280;27319;50.306;18.926;2023-04-29T01:24:12;97905.19;;;11.08;61.87
41624;BME280;27319;50.306;18.926;2023-04-29T01:32:03;97906.44;;;10.98;63.48
41624;BME280;27319;50.306;18.926;2023-04-29T01:43:27;97897.38;;;10.99;64.71
41624;BME280;27319;50.306;18.926;2023-04-29T01:47:28;97899.75;;;10.94;64.21
41624;BME280;27319;50.306;18.926;2023-04-29T01:51:28;97902.97;;;10.89;63.57
41624;BME280;27319;50.306;18.926;2023-04-29T01:55:29;97895.41;;;10.93;63.96
41624;BME280;27319;50.306;18.926;2023-04-29T01:59:30;97891.88;;;10.92;63.44
41624;BME280;27319;50.306;18.926;2023-04-29T02:03:31;97894.06;;;10.89;63.38
41624;BME280;27319;50.306;18.926;2023-04-29T02:07:31;97896.44;;;10.92;63.84
41624;BME280;27319;50.306;18.926;2023-04-29T02:11:32;97896.50;;;10.84;63.93
41624;BME280;27319;50.306;18.926;2023-04-29T02:15:33;97886.41;;;10.86;63.33
41624;BME280;27319;50.306;18.926;2023-04-29T02:19:34;97885.75;;;10.84;63.33
41624;BME280;27319;50.306;18.926;2023-04-29T02:23:35;97883.09;;;10.76;62.96
41624;BME280;27319;50.306;18.926;2023-04-29T02:27:35;97884.44;;;10.80;63.51
41624;BME280;27319;50.306;18.926;2023-04-29T02:31:36;97884.34;;;10.88;63.53
41624;BME280;27319;50.306;18.926;2023-04-29T02:35:37;97877.81;;;10.90;63.27
41624;BME280;27319;50.306;18.926;2023-04-29T02:39:38;97885.22;;;10.88;63.38
41624;BME280;27319;50.306;18.926;2023-04-29T02:43:38;97881.34;;;10.91;64.51
41624;BME280;27319;50.306;18.926;2023-04-29T02:47:39;97878.03;;;10.81;64.80
41624;BME280;27319;50.306;18.926;2023-04-29T02:51:40;97881.25;;;10.77;64.35
41624;BME280;27319;50.306;18.926;2023-04-29T02:55:41;97873.38;;;10.75;64.99
41624;BME280;27319;50.306;18.926;2023-04-29T02:59:41;97878.75;;;10.75;65.18
41624;BME280;27319;50.306;18.926;2023-04-29T03:03:22;97870.84;;;10.82;65.50
41624;BME280;27319;50.306;18.926;2023-04-29T03:06:42;97865.03;;;10.70;64.99
41624;BME280;27319;50.306;18.926;2023-04-29T03:10:43;97855.84;;;10.87;65.53
41624;BME280;27319;50.306;18.926;2023-04-29T03:14:44;97858.84;;;10.92;65.71
41624;BME280;27319;50.306;18.926;2023-04-29T03:18:45;97861.13;;;10.95;65.73
41624;BME280;27319;50.306;18.926;2023-04-29T03:22:45;97863.19;;;10.93;65.79
41624;BME280;27319;50.306;18.926;2023-04-29T03:26:46;97852.16;;;10.88;65.84
41624;BME280;27319;50.306;18.926;2023-04-29T03:30:47;97854.91;;;10.80;65.49
41624;BME280;27319;50.306;18.926;2023-04-29T03:34:48;97855.53;;;10.82;65.58
41624;BME280;27319;50.306;18.926;2023-04-29T03:38:49;97854.59;;;10.75;65.67
41624;BME280;27319;50.306;18.926;2023-04-29T03:42:49;97861.09;;;10.80;66.18
41624;BME280;27319;50.306;18.926;2023-04-29T03:46:50;97850.25;;;10.74;66.72
41624;BME280;27319;50.306;18.926;2023-04-29T03:50:51;97850.91;;;10.76;68.39
41624;BME280;27319;50.306;18.926;2023-04-29T03:54:52;97848.75;;;10.72;67.51
41624;BME280;27319;50.306;18.926;2023-04-29T03:58:52;97849.22;;;10.75;67.52
41624;BME280;27319;50.306;18.926;2023-04-29T04:02:53;97851.91;;;10.75;67.42
41624;BME280;27319;50.306;18.926;2023-04-29T04:06:54;97855.63;;;10.74;67.60
41624;BME280;27319;50.306;18.926;2023-04-29T04:10:55;97853.94;;;10.73;67.25
41624;BME280;27319;50.306;18.926;2023-04-29T04:14:55;97852.09;;;10.73;67.74
41624;BME280;27319;50.306;18.926;2023-04-29T04:18:56;97853.16;;;10.65;68.25
41624;BME280;27319;50.306;18.926;2023-04-29T04:22:57;97846.78;;;10.66;68.21
41624;BME280;27319;50.306;18.926;2023-04-29T04:26:58;97844.91;;;10.66;68.40
41624;BME280;27319;50.306;18.926;2023-04-29T04:30:59;97843.25;;;10.65;68.97
41624;BME280;27319;50.306;18.926;2023-04-29T04:34:59;97846.63;;;10.67;68.59
41624;BME280;27319;50.306;18.926;2023-04-29T04:39:00;97845.91;;;10.73;68.45
41624;BME280;27319;50.306;18.926;2023-04-29T04:43:01;97847.44;;;10.68;68.60
41624;BME280;27319;50.306;18.926;2023-04-29T04:47:02;97852.84;;;10.82;68.07
41624;BME280;27319;50.306;18.926;2023-04-29T04:51:09;97856.41;;;10.82;67.67
41624;BME280;27319;50.306;18.926;2023-04-29T04:55:09;97850.19;;;10.82;68.04
41624;BME280;27319;50.306;18.926;2023-04-29T04:59:10;97857.50;;;10.88;67.93
41624;BME280;27319;50.306;18.926;2023-04-29T05:03:11;97857.81;;;10.93;67.43
41624;BME280;27319;50.306;18.926;2023-04-29T05:07:12;97863.34;;;10.91;67.86
41624;BME280;27319;50.306;18.926;2023-04-29T05:10:53;97854.59;;;10.97;68.08
41624;BME280;27319;50.306;18.926;2023-04-29T05:14:13;97847.53;;;10.96;68.23
41624;BME280;27319;50.306;18.926;2023-04-29T05:18:14;97847.38;;;10.98;68.58
41624;BME280;27319;50.306;18.926;2023-04-29T05:22:15;97848.88;;;11.00;69.06
41624;BME280;27319;50.306;18.926;2023-04-29T05:26:16;97853.38;;;11.00;69.76
41624;BME280;27319;50.306;18.926;2023-04-29T05:30:16;97851.84;;;11.05;70.07
41624;BME280;27319;50.306;18.926;2023-04-29T05:34:18;97852.78;;;11.12;69.02
41624;BME280;27319;50.306;18.926;2023-04-29T05:38:19;97854.84;;;11.10;69.88
41624;BME280;27319;50.306;18.926;2023-04-29T05:42:20;97852.31;;;11.09;69.81
41624;BME280;27319;50.306;18.926;2023-04-29T05:46:21;97855.81;;;11.09;69.45
41624;BME280;27319;50.306;18.926;2023-04-29T05:50:21;97855.81;;;11.09;70.72
41624;BME280;27319;50.306;18.926;2023-04-29T05:54:22;97864.56;;;11.11;70.32
41624;BME280;27319;50.306;18.926;2023-04-29T05:58:23;97863.72;;;11.11;71.58
41624;BME280;27319;50.306;18.926;2023-04-29T06:02:11;97857.78;;;11.15;71.50
41624;BME280;27319;50.306;18.926;2023-04-29T06:05:33;97864.38;;;11.13;69.57
41624;BME280;27319;50.306;18.926;2023-04-29T06:09:35;97861.97;;;11.18;71.58
41624;BME280;27319;50.306;18.926;2023-04-29T06:13:35;97865.63;;;11.25;73.60
41624;BME280;27319;50.306;18.926;2023-04-29T06:17:36;97862.84;;;11.33;71.57
41624;BME280;27319;50.306;18.926;2023-04-29T06:21:37;97863.88;;;11.32;73.27
41624;BME280;27319;50.306;18.926;2023-04-29T06:25:37;97858.06;;;11.43;74.78
41624;BME280;27319;50.306;18.926;2023-04-29T06:29:38;97853.78;;;11.48;73.08
41624;BME280;27319;50.306;18.926;2023-04-29T06:33:39;97856.31;;;11.50;74.90
41624;BME280;27319;50.306;18.926;2023-04-29T06:37:40;97855.94;;;11.53;73.13
41624;BME280;27319;50.306;18.926;2023-04-29T06:41:40;97853.91;;;11.55;73.19
41624;BME280;27319;50.306;18.926;2023-04-29T06:45:44;97845.13;;;11.61;74.02
41624;BME280;27319;50.306;18.926;2023-04-29T06:49:42;97856.19;;;11.66;73.08
41624;BME280;27319;50.306;18.926;2023-04-29T06:53:43;97859.16;;;11.71;71.95
41624;BME280;27319;50.306;18.926;2023-04-29T06:57:44;97861.44;;;11.74;73.00
41624;BME280;27319;50.306;18.926;2023-04-29T07:01:44;97853.78;;;11.71;71.61
41624;BME280;27319;50.306;18.926;2023-04-29T07:05:18;97856.53;;;11.77;72.23
41624;BME280;27319;50.306;18.926;2023-04-29T07:08:39;97851.44;;;11.82;73.26
41624;BME280;27319;50.306;18.926;2023-04-29T07:12:40;97851.63;;;11.81;72.37
41624;BME280;27319;50.306;18.926;2023-04-29T07:16:40;97860.34;;;11.97;71.68
41624;BME280;27319;50.306;18.926;2023-04-29T07:20:41;97859.06;;;11.93;72.84
41624;BME280;27319;50.306;18.926;2023-04-29T07:24:42;97850.41;;;11.98;73.09
41624;BME280;27319;50.306;18.926;2023-04-29T07:28:43;97851.25;;;11.98;73.86
41624;BME280;27319;50.306;18.926;2023-04-29T07:32:43;97860.44;;;12.04;73.62
41624;BME280;27319;50.306;18.926;2023-04-29T07:36:44;97859.31;;;12.13;73.29
41624;BME280;27319;50.306;18.926;2023-04-29T07:40:45;97860.97;;;12.14;73.29
41624;BME280;27319;50.306;18.926;2023-04-29T07:44:46;97865.16;;;12.16;72.31
41624;BME280;27319;50.306;18.926;2023-04-29T07:48:47;97855.59;;;12.28;73.51
41624;BME280;27319;50.306;18.926;2023-04-29T07:52:47;97853.72;;;12.43;72.34
41624;BME280;27319;50.306;18.926;2023-04-29T07:56:48;97855.88;;;12.69;73.15
41624;BME280;27319;50.306;18.926;2023-04-29T08:00:44;97864.13;;;13.03;71.17
41624;BME280;27319;50.306;18.926;2023-04-29T08:04:45;97859.03;;;13.35;71.38
41624;BME280;27319;50.306;18.926;2023-04-29T08:08:49;97862.44;;;13.44;71.73
41624;BME280;27319;50.306;18.926;2023-04-29T08:12:47;97861.94;;;13.61;70.77
41624;BME280;27319;50.306;18.926;2023-04-29T08:16:47;97864.81;;;13.87;70.70
41624;BME280;27319;50.306;18.926;2023-04-29T08:20:48;97862.75;;;13.89;69.55
41624;BME280;27319;50.306;18.926;2023-04-29T08:24:49;97864.22;;;13.92;68.47
41624;BME280;27319;50.306;18.926;2023-04-29T08:28:50;97871.84;;;14.16;68.03
41624;BME280;27319;50.306;18.926;2023-04-29T08:32:50;97865.66;;;14.22;68.36
41624;BME280;27319;50.306;18.926;2023-04-29T08:36:51;97873.66;;;14.09;66.91
41624;BME280;27319;50.306;18.926;2023-04-29T08:40:54;97868.66;;;14.40;67.58
41624;BME280;27319;50.306;18.926;2023-04-29T08:44:55;97860.63;;;14.59;65.97
41624;BME280;27319;50.306;18.926;2023-04-29T08:48:56;97865.59;;;15.16;65.97
41624;BME280;27319;50.306;18.926;2023-04-29T08:52:37;97867.09;;;15.64;64.14
41624;BME280;27319;50.306;18.926;2023-04-29T08:55:45;97863.97;;;15.54;65.77
41624;BME280;27319;50.306;18.926;2023-04-29T08:58:49;97867.09;;;15.70;63.43
41624;BME280;27319;50.306;18.926;2023-04-29T09:02:14;97859.56;;;15.92;63.43
41624;BME280;27319;50.306;18.926;2023-04-29T09:06:17;97870.81;;;15.76;64.19
41624;BME280;27319;50.306;18.926;2023-04-29T09:10:18;97868.31;;;16.00;62.38
41624;BME280;27319;50.306;18.926;2023-04-29T09:14:19;97874.56;;;15.88;63.94
41624;BME280;27319;50.306;18.926;2023-04-29T09:22:18;97857.50;;;15.87;61.30
41624;BME280;27319;50.306;18.926;2023-04-29T09:26:19;97862.03;;;16.00;61.61
41624;BME280;27319;50.306;18.926;2023-04-29T09:30:20;97861.88;;;15.88;63.48
41624;BME280;27319;50.306;18.926;2023-04-29T09:34:30;97862.28;;;15.66;63.59
41624;BME280;27319;50.306;18.926;2023-04-29T09:38:30;97857.72;;;15.66;65.87
41624;BME280;27319;50.306;18.926;2023-04-29T09:42:36;97855.81;;;15.93;63.85
41624;BME280;27319;50.306;18.926;2023-04-29T09:46:12;97857.31;;;15.76;62.54
41624;BME280;27319;50.306;18.926;2023-04-29T09:49:42;97862.50;;;15.51;63.98
41624;BME280;27319;50.306;18.926;2023-04-29T09:53:49;97854.41;;;15.58;63.07
41624;BME280;27319;50.306;18.926;2023-04-29T09:57:49;97867.09;;;15.51;62.95
41624;BME280;27319;50.306;18.926;2023-04-29T10:01:53;97871.00;;;15.29;64.22
41624;BME280;27319;50.306;18.926;2023-04-29T10:05:37;97868.28;;;15.16;64.63
41624;BME280;27319;50.306;18.926;2023-04-29T10:09:38;97873.69;;;15.16;64.33
41624;BME280;27319;50.306;18.926;2023-04-29T10:13:38;97862.84;;;14.96;65.06
41624;BME280;27319;50.306;18.926;2023-04-29T10:17:42;97865.31;;;14.91;65.88
41624;BME280;27319;50.306;18.926;2023-04-29T10:21:43;97869.06;;;14.97;64.93
41624;BME280;27319;50.306;18.926;2023-04-29T10:25:43;97864.31;;;14.99;64.77
41624;BME280;27319;50.306;18.926;2023-04-29T10:29:44;97858.84;;;14.86;65.22
41624;BME280;27319;50.306;18.926;2023-04-29T10:33:45;97866.16;;;14.85;65.53
41624;BME280;27319;50.306;18.926;2023-04-29T10:37:46;97864.44;;;14.78;64.93
41624;BME280;27319;50.306;18.926;2023-04-29T10:41:46;97869.81;;;14.65;65.52
41624;BME280;27319;50.306;18.926;2023-04-29T10:46:16;97858.56;;;14.55;66.60
41624;BME280;27319;50.306;18.926;2023-04-29T10:50:01;97859.00;;;14.65;66.78
41624;BME280;27319;50.306;18.926;2023-04-29T10:54:17;97861.88;;;14.57;66.64
41624;BME280;27319;50.306;18.926;2023-04-29T10:58:33;97867.31;;;14.63;66.17
41624;BME280;27319;50.306;18.926;2023-04-29T11:02:13;97860.25;;;14.69;65.81
41624;BME280;27319;50.306;18.926;2023-04-29T11:05:35;97857.34;;;14.64;65.67
41624;BME280;27319;50.306;18.926;2023-04-29T12:04:20;97865.56;;;14.43;74.29
41624;BME280;27319;50.306;18.926;2023-04-29T12:08:27;97864.06;;;14.34;74.63
41624;BME280;27319;50.306;18.926;2023-04-29T12:12:05;97861.38;;;14.34;75.17
41624;BME280;27319;50.306;18.926;2023-04-29T12:16:06;97861.06;;;14.56;79.16
41624;BME280;27319;50.306;18.926;2023-04-29T12:20:07;97869.47;;;14.81;77.76
41624;BME280;27319;50.306;18.926;2023-04-29T12:24:07;97869.28;;;14.95;76.14
41624;BME280;27319;50.306;18.926;2023-04-29T12:28:11;97860.56;;;15.13;77.45
41624;BME280;27319;50.306;18.926;2023-04-29T12:32:15;97854.81;;;15.55;76.39
41624;BME280;27319;50.306;18.926;2023-04-29T12:36:16;97851.44;;;15.85;74.43
41624;BME280;27319;50.306;18.926;2023-04-29T12:40:14;97854.81;;;15.68;74.41
41624;BME280;27319;50.306;18.926;2023-04-29T12:44:14;97845.03;;;15.80;73.67
41624;BME280;27319;50.306;18.926;2023-04-29T12:48:15;97842.50;;;15.91;72.37
41624;BME280;27319;50.306;18.926;2023-04-29T12:52:16;97840.38;;;16.00;71.91
41624;BME280;27319;50.306;18.926;2023-04-29T12:56:17;97842.84;;;16.21;73.56
41624;BME280;27319;50.306;18.926;2023-04-29T13:00:18;97841.22;;;16.64;71.38
41624;BME280;27319;50.306;18.926;2023-04-29T13:04:19;97833.97;;;16.58;71.40
41624;BME280;27319;50.306;18.926;2023-04-29T13:08:19;97832.44;;;16.18;70.01
41624;BME280;27319;50.306;18.926;2023-04-29T13:11:44;97828.34;;;15.83;68.61
41624;BME280;27319;50.306;18.926;2023-04-29T13:14:45;97814.84;;;15.63;72.44
41624;BME280;27319;50.306;18.926;2023-04-29T13:17:46;97816.50;;;15.71;71.87
41624;BME280;27319;50.306;18.926;2023-04-29T13:20:47;97815.47;;;15.72;69.21
41624;BME280;27319;50.306;18.926;2023-04-29T13:23:49;97826.69;;;15.82;68.02
41624;BME280;27319;50.306;18.926;2023-04-29T13:27:11;97814.44;;;15.66;70.44
41624;BME280;27319;50.306;18.926;2023-04-29T13:31:12;97815.25;;;15.80;68.38
41624;BME280;27319;50.306;18.926;2023-04-29T13:35:13;97811.25;;;15.89;68.14
41624;BME280;27319;50.306;18.926;2023-04-29T13:39:14;97816.25;;;15.92;69.69
41624;BME280;27319;50.306;18.926;2023-04-29T13:43:14;97815.06;;;15.75;68.87
41624;BME280;27319;50.306;18.926;2023-04-29T13:47:15;97807.94;;;15.87;68.03
41624;BME280;27319;50.306;18.926;2023-04-29T13:51:16;97806.09;;;15.81;67.58
41624;BME280;27319;50.306;18.926;2023-04-29T13:55:17;97809.84;;;15.73;66.76
41624;BME280;27319;50.306;18.926;2023-04-29T13:59:17;97815.06;;;15.68;65.63
41624;BME280;27319;50.306;18.926;2023-04-29T14:03:18;97815.91;;;15.56;66.40
41624;BME280;27319;50.306;18.926;2023-04-29T14:07:19;97815.50;;;15.46;67.24
41624;BME280;27319;50.306;18.926;2023-04-29T14:11:00;97809.28;;;15.39;69.49
41624;BME280;27319;50.306;18.926;2023-04-29T14:14:20;97810.47;;;15.30;69.84
41624;BME280;27319;50.306;18.926;2023-04-29T14:18:21;97809.00;;;15.21;70.05
41624;BME280;27319;50.306;18.926;2023-04-29T14:22:22;97814.44;;;15.14;70.66
41624;BME280;27319;50.306;18.926;2023-04-29T14:26:23;97810.25;;;14.99;71.04
41624;BME280;27319;50.306;18.926;2023-04-29T14:30:24;97818.59;;;15.04;71.75
41624;BME280;27319;50.306;18.926;2023-04-29T14:34:25;97825.81;;;14.97;72.18
41624;BME280;27319;50.306;18.926;2023-04-29T14:38:26;97812.75;;;14.94;74.93
41624;BME280;27319;50.306;18.926;2023-04-29T14:42:27;97819.59;;;14.90;75.56
41624;BME280;27319;50.306;18.926;2023-04-29T14:46:27;97822.09;;;14.98;78.42
41624;BME280;27319;50.306;18.926;2023-04-29T14:50:28;97815.44;;;15.07;79.90
41624;BME280;27319;50.306;18.926;2023-04-29T14:54:29;97817.97;;;15.21;79.46
41624;BME280;27319;50.306;18.926;2023-04-29T14:58:30;97815.91;;;15.43;80.73
41624;BME280;27319;50.306;18.926;2023-04-29T15:02:31;97807.13;;;15.80;80.27
41624;BME280;27319;50.306;18.926;2023-04-29T15:06:32;97813.16;;;15.82;75.91
41624;BME280;27319;50.306;18.926;2023-04-29T15:10:33;97803.13;;;15.95;77.19
41624;BME280;27319;50.306;18.926;2023-04-29T15:14:33;97817.47;;;16.09;77.37
41624;BME280;27319;50.306;18.926;2023-04-29T15:18:34;97814.81;;;15.96;78.11
41624;BME280;27319;50.306;18.926;2023-04-29T15:22:35;97818.34;;;15.90;78.65
41624;BME280;27319;50.306;18.926;2023-04-29T15:26:36;97817.56;;;15.70;78.94
41624;BME280;27319;50.306;18.926;2023-04-29T15:30:37;97820.69;;;15.54;80.37
41624;BME280;27319;50.306;18.926;2023-04-29T15:34:38;97822.78;;;15.45;79.48
41624;BME280;27319;50.306;18.926;2023-04-29T15:38:39;97824.88;;;15.43;77.62
41624;BME280;27319;50.306;18.926;2023-04-29T15:42:39;97823.16;;;15.29;79.08
41624;BME280;27319;50.306;18.926;2023-04-29T15:46:40;97827.09;;;15.14;78.46
41624;BME280;27319;50.306;18.926;2023-04-29T15:50:41;97821.91;;;15.06;78.46
41624;BME280;27319;50.306;18.926;2023-04-29T15:54:42;97825.84;;;15.03;75.70
41624;BME280;27319;50.306;18.926;2023-04-29T15:58:43;97828.34;;;15.05;76.76
41624;BME280;27319;50.306;18.926;2023-04-29T16:02:44;97841.00;;;14.98;76.71
41624;BME280;27319;50.306;18.926;2023-04-29T16:06:44;97834.94;;;14.76;78.22
41624;BME280;27319;50.306;18.926;2023-04-29T16:10:46;97835.28;;;14.54;81.89
41624;BME280;27319;50.306;18.926;2023-04-29T16:14:47;97838.81;;;14.54;81.06
41624;BME280;27319;50.306;18.926;2023-04-29T16:18:48;97836.56;;;14.58;83.56
41624;BME280;27319;50.306;18.926;2023-04-29T16:22:49;97831.59;;;14.68;81.58
41624;BME280;27319;50.306;18.926;2023-04-29T16:26:49;97835.31;;;14.67;79.77
41624;BME280;27319;50.306;18.926;2023-04-29T16:30:50;97843.03;;;14.76;81.06
41624;BME280;27319;50.306;18.926;2023-04-29T16:34:54;97843.66;;;14.72;79.30
41624;BME280;27319;50.306;18.926;2023-04-29T16:38:55;97844.03;;;14.69;79.34
41624;BME280;27319;50.306;18.926;2023-04-29T16:42:36;97843.44;;;14.67;80.59
41624;BME280;27319;50.306;18.926;2023-04-29T16:45:57;97849.03;;;14.59;79.37
41624;BME280;27319;50.306;18.926;2023-04-29T16:49:57;97854.78;;;14.43;78.45
41624;BME280;27319;50.306;18.926;2023-04-29T16:53:58;97849.75;;;14.33;78.14
41624;BME280;27319;50.306;18.926;2023-04-29T16:57:59;97857.19;;;14.31;78.79
41624;BME280;27319;50.306;18.926;2023-04-29T17:02:00;97863.69;;;14.37;78.50
41624;BME280;27319;50.306;18.926;2023-04-29T17:06:01;97864.38;;;14.18;78.79
41624;BME280;27319;50.306;18.926;2023-04-29T17:10:02;97856.75;;;14.21;78.70
41624;BME280;27319;50.306;18.926;2023-04-29T17:14:02;97861.31;;;14.21;80.09
41624;BME280;27319;50.306;18.926;2023-04-29T17:18:03;97855.72;;;14.29;78.61
41624;BME280;27319;50.306;18.926;2023-04-29T17:22:04;97865.66;;;14.22;80.44
41624;BME280;27319;50.306;18.926;2023-04-29T17:26:05;97862.94;;;14.15;79.68
41624;BME280;27319;50.306;18.926;2023-04-29T17:30:06;97859.66;;;14.20;79.86
41624;BME280;27319;50.306;18.926;2023-04-29T17:34:07;97871.22;;;14.14;79.60
41624;BME280;27319;50.306;18.926;2023-04-29T17:38:08;97874.03;;;13.99;81.80
41624;BME280;27319;50.306;18.926;2023-04-29T17:41:49;97875.97;;;14.12;80.25
41624;BME280;27319;50.306;18.926;2023-04-29T17:45:10;97871.16;;;14.01;80.34
41624;BME280;27319;50.306;18.926;2023-04-29T17:49:10;97861.59;;;14.05;80.92
41624;BME280;27319;50.306;18.926;2023-04-29T17:53:12;97876.53;;;14.01;81.62
41624;BME280;27319;50.306;18.926;2023-04-29T17:57:12;97874.63;;;13.95;82.16
41624;BME280;27319;50.306;18.926;2023-04-29T18:01:13;97883.03;;;13.79;81.76
41624;BME280;27319;50.306;18.926;2023-04-29T18:05:14;97884.28;;;13.83;83.08
41624;BME280;27319;50.306;18.926;2023-04-29T18:09:15;97888.41;;;13.79;81.92
41624;BME280;27319;50.306;18.926;2023-04-29T18:13:15;97895.53;;;13.86;81.79
41624;BME280;27319;50.306;18.926;2023-04-29T18:17:16;97905.47;;;13.86;81.68
41624;BME280;27319;50.306;18.926;2023-04-29T18:21:23;97896.66;;;13.71;82.34
41624;BME280;27319;50.306;18.926;2023-04-29T18:25:24;97911.03;;;13.78;82.48
41624;BME280;27319;50.306;18.926;2023-04-29T18:29:20;97895.03;;;13.76;83.04
41624;BME280;27319;50.306;18.926;2023-04-29T18:32:21;97902.28;;;13.76;83.80
41624;BME280;27319;50.306;18.926;2023-04-29T18:35:22;97909.81;;;13.80;83.96
41624;BME280;27319;50.306;18.926;2023-04-29T18:38:43;97920.72;;;13.72;82.69
41624;BME280;27319;50.306;18.926;2023-04-29T18:42:43;97916.31;;;13.65;85.20
41624;BME280;27319;50.306;18.926;2023-04-29T18:46:44;97918.88;;;13.73;83.51
41624;BME280;27319;50.306;18.926;2023-04-29T18:50:45;97932.56;;;13.71;83.04
41624;BME280;27319;50.306;18.926;2023-04-29T18:54:46;97933.97;;;13.67;86.20
41624;BME280;27319;50.306;18.926;2023-04-29T18:58:47;97940.56;;;13.65;84.95
41624;BME280;27319;50.306;18.926;2023-04-29T19:02:48;97940.56;;;13.65;85.17
41624;BME280;27319;50.306;18.926;2023-04-29T19:06:48;97943.72;;;13.68;84.05
41624;BME280;27319;50.306;18.926;2023-04-29T19:10:49;97947.50;;;13.74;83.97
41624;BME280;27319;50.306;18.926;2023-04-29T19:14:50;97941.88;;;13.69;86.76
41624;BME280;27319;50.306;18.926;2023-04-29T19:18:51;97954.13;;;13.71;87.07
41624;BME280;27319;50.306;18.926;2023-04-29T19:22:52;97957.78;;;13.64;86.40
41624;BME280;27319;50.306;18.926;2023-04-29T19:26:53;97964.06;;;13.71;88.08
41624;BME280;27319;50.306;18.926;2023-04-29T19:30:53;97966.03;;;13.56;89.94
41624;BME280;27319;50.306;18.926;2023-04-29T19:34:54;97969.59;;;13.42;90.69
41624;BME280;27319;50.306;18.926;2023-04-29T19:38:36;97976.16;;;13.33;92.27
41624;BME280;27319;50.306;18.926;2023-04-29T19:41:36;97968.41;;;13.23;91.70
41624;BME280;27319;50.306;18.926;2023-04-29T19:44:37;97970.84;;;13.18;90.22
41624;BME280;27319;50.306;18.926;2023-04-29T19:47:38;97973.72;;;13.17;90.61
41624;BME280;27319;50.306;18.926;2023-04-29T19:50:39;97981.97;;;13.15;89.89
41624;BME280;27319;50.306;18.926;2023-04-29T19:53:40;97985.69;;;13.14;89.65
41624;BME280;27319;50.306;18.926;2023-04-29T19:56:41;97988.81;;;12.97;91.25
41624;BME280;27319;50.306;18.926;2023-04-29T19:59:42;97985.81;;;12.92;90.06
41624;BME280;27319;50.306;18.926;2023-04-29T20:02:43;97987.78;;;12.83;91.27
41624;BME280;27319;50.306;18.926;2023-04-29T20:06:04;97995.41;;;12.80;90.12
41624;BME280;27319;50.306;18.926;2023-04-29T20:10:05;97991.97;;;12.86;90.02
41624;BME280;27319;50.306;18.926;2023-04-29T20:14:06;97982.16;;;12.64;91.19
41624;BME280;27319;50.306;18.926;2023-04-29T20:18:07;97989.28;;;12.86;89.02
41624;BME280;27319;50.306;18.926;2023-04-29T20:22:08;97999.84;;;12.87;89.08
41624;BME280;27319;50.306;18.926;2023-04-29T20:26:08;97989.53;;;12.91;89.37
41624;BME280;27319;50.306;18.926;2023-04-29T20:30:09;97986.31;;;12.95;89.20
41624;BME280;27319;50.306;18.926;2023-04-29T20:33:50;97987.69;;;12.91;88.74
41624;BME280;27319;50.306;18.926;2023-04-29T20:36:51;97985.38;;;12.88;89.00
41624;BME280;27319;50.306;18.926;2023-04-29T20:39:52;97988.44;;;12.71;90.30
41624;BME280;27319;50.306;18.926;2023-04-29T20:42:53;97990.78;;;12.74;90.46
41624;BME280;27319;50.306;18.926;2023-04-29T20:45:54;97990.69;;;12.67;90.76
41624;BME280;27319;50.306;18.926;2023-04-29T20:48:55;97988.19;;;12.51;91.86
41624;BME280;27319;50.306;18.926;2023-04-29T20:51:57;97993.75;;;12.64;91.09
41624;BME280;27319;50.306;18.926;2023-04-29T20:54:59;97994.59;;;12.65;91.67
41624;BME280;27319;50.306;18.926;2023-04-29T20:58:00;97997.75;;;12.54;91.83
41624;BME280;27319;50.306;18.926;2023-04-29T21:01:00;98002.78;;;12.57;91.42
41624;BME280;27319;50.306;18.926;2023-04-29T21:04:01;98008.50;;;12.54;91.88
41624;BME280;27319;50.306;18.926;2023-04-29T21:07:03;98000.72;;;12.59;91.59
41624;BME280;27319;50.306;18.926;2023-04-29T21:10:04;98006.28;;;12.72;89.94
41624;BME280;27319;50.306;18.926;2023-04-29T21:13:05;98004.88;;;12.76;89.00
41624;BME280;27319;50.306;18.926;2023-04-29T21:16:06;98004.63;;;12.56;92.07
41624;BME280;27319;50.306;18.926;2023-04-29T21:19:07;98007.13;;;12.58;91.86
41624;BME280;27319;50.306;18.926;2023-04-29T21:22:08;98010.00;;;12.42;92.87
41624;BME280;27319;50.306;18.926;2023-04-29T21:25:09;98018.06;;;12.42;93.90
41624;BME280;27319;50.306;18.926;2023-04-29T21:28:10;98009.25;;;12.48;94.03
41624;BME280;27319;50.306;18.926;2023-04-29T21:31:11;98018.66;;;12.52;92.05